Latest  Newer  Older  Last 2 hours slideshow  Last 24 hours slideshow  Refresh every 5 minutes 
Current image  Latest image  Rain/snow radar  Cloud coverage sat images 

All time is UTC (add 2 hours to UTC in wintertime, 3 hours to UTC in DST for Latvia local time)

2021/11/30 18:50 EVRA 301850Z 26005KT 210V300 9999 BKN031 M02/M05 Q0987 NOSIG
2021/11/30 18:50 EVLA 301850Z AUTO VRB01KT 9999 -SN SCT011/// BKN032/// OVC038/// M01/M02 Q0990
2021/11/30 18:50 EVVA 301850Z AUTO 33014KT 9999 BKN043 OVC049 01/M06 Q0989
2021/11/30 18:50 EYKA 301850Z 22003KT 190V280 9999 SCT021 M03/M04 Q0989
2021/11/30 18:50 EYPA 301850Z VRB02KT 9999 BKN042 BKN150 M02/M04 Q0990
2021/11/30 18:50 EYSA 301850Z 28010KT 9999 BKN043 M03/M07 Q0988 NOSIG
2021/11/30 18:50 EYVI 301850Z 20003KT 5000 BR BKN015 M05/M06 Q0989 TEMPO 1500 BR BKN005
2021/11/30 16:20 EEKA 301620Z 33022KT 9999 BKN019 M03/M06 Q0986
2021/11/30 18:50 EEKE 301850Z AUTO 33006KT 300V010 9999NDV OVC031 M02/M06 Q0987

2021/11/30 18:50 EETN 301850Z 32012KT 9999 DRSN BKN011 OVC015 M06/M09 Q0983 NOSIG
2021/11/30 18:50 EETU 301850Z AUTO 28012KT 9999 SG OVC009/// M06/M08 Q0982
   RIGA AIRPORT     EVRA               56 55N  023 58E   10   X     T          6 LV
   LIEPAJA INTL     EVLA        26406  56 31N  021 06E    4   X                8 LV
   VENTPILS         EVVA               57 21N  021 33E    6   X                8 LV
   KAUNAS           EYKA               54 54N  023 55E   77   X     T          6 LT
   PALANGA INTL     EYPA               55 55N  021 03E   10   X                6 LT
   SIAULIAI INTL    EYSA               55 54N  023 24E  135   X     T          6 LT
   VILNIUS INTL     EYVI        26730  54 38N  025 17E  197   X     T          6 LT
   KARDLA           EEKA        26116  58 59N  022 50E    4   X                8 EE
   KURESSAARE       EEKE               58 14N  022 31E    4   X                8 EE
   PARNU            EEPU               58 25N  024 28E   14   X                8 EE
   TALLINN          EETN        26038  59 24N  024 49E   40   X     T          8 EE
   TARTU            EETU               58 19N  026 41E   67   X                8 EE